createdAt,value
2023-04-30T00:01:33.994Z,15.20
2023-04-30T00:04:02.432Z,15.30
2023-04-30T00:06:31.243Z,15.40
2023-04-30T00:08:59.666Z,15.50
2023-04-30T00:11:28.077Z,15.60
2023-04-30T00:13:57.105Z,15.70
2023-04-30T00:16:26.148Z,15.70
2023-04-30T00:18:55.916Z,15.70
2023-04-30T00:21:24.350Z,15.70
2023-04-30T00:23:52.707Z,15.80
2023-04-30T00:26:21.077Z,15.70
2023-04-30T00:28:51.066Z,15.70
2023-04-30T00:31:19.546Z,15.70
2023-04-30T00:33:47.966Z,15.70
2023-04-30T00:36:17.870Z,15.70
2023-04-30T00:38:46.342Z,15.80
2023-04-30T00:41:15.346Z,16.00
2023-04-30T00:43:44.188Z,16.00
2023-04-30T00:46:12.541Z,15.90
2023-04-30T00:48:41.061Z,15.80
2023-04-30T00:51:09.548Z,15.90
2023-04-30T00:53:41.253Z,15.90
2023-04-30T00:56:11.315Z,15.90
2023-04-30T00:58:39.691Z,15.90
2023-04-30T01:01:09.057Z,15.90
2023-04-30T01:03:38.158Z,15.70
2023-04-30T01:06:07.645Z,15.70
2023-04-30T01:08:36.843Z,15.60
2023-04-30T01:11:17.581Z,15.70
2023-04-30T01:13:54.771Z,15.70
2023-04-30T01:16:26.971Z,15.60
2023-04-30T01:19:00.369Z,15.50
2023-04-30T01:21:32.676Z,15.50
2023-04-30T01:24:39.742Z,15.40
2023-04-30T01:27:23.406Z,15.40
2023-04-30T01:29:55.017Z,15.40
2023-04-30T01:32:24.315Z,15.30
2023-04-30T01:34:52.647Z,15.30
2023-04-30T01:37:27.987Z,15.20
2023-04-30T01:40:19.017Z,15.10
2023-04-30T01:42:57.597Z,14.70
2023-04-30T01:45:43.065Z,14.70
2023-04-30T01:48:22.542Z,14.50
2023-04-30T01:50:54.786Z,14.50
2023-04-30T01:53:30.701Z,14.60
2023-04-30T01:56:03.610Z,14.60
2023-04-30T01:58:33.241Z,14.60
2023-04-30T02:01:03.113Z,14.70
2023-04-30T02:03:31.628Z,14.60
2023-04-30T02:06:00.704Z,14.60
2023-04-30T02:08:31.537Z,14.70
2023-04-30T02:10:59.946Z,14.80
2023-04-30T02:13:28.266Z,14.90
2023-04-30T02:15:58.372Z,14.90
2023-04-30T02:18:33.394Z,14.90
2023-04-30T02:21:02.729Z,14.80
2023-04-30T02:23:33.161Z,14.80
2023-04-30T02:26:03.184Z,14.80
2023-04-30T02:28:31.696Z,14.90
2023-04-30T02:31:02.064Z,15.00
2023-04-30T02:33:37.998Z,15.10
2023-04-30T02:36:07.565Z,15.20
2023-04-30T02:38:36.044Z,15.10
2023-04-30T02:41:04.649Z,15.10
2023-04-30T02:43:33.572Z,15.10
2023-04-30T02:46:02.318Z,15.10
2023-04-30T02:48:31.304Z,15.20
2023-04-30T02:51:01.339Z,15.30
2023-04-30T02:53:29.758Z,15.30
2023-04-30T02:56:00.696Z,15.20
2023-04-30T02:58:29.287Z,15.20
2023-04-30T03:00:57.956Z,15.20
2023-04-30T03:03:26.374Z,15.20
2023-04-30T03:05:56.775Z,15.30
2023-04-30T03:08:26.639Z,15.30
2023-04-30T03:10:55.084Z,15.30
2023-04-30T03:13:25.896Z,15.30
2023-04-30T03:16:00.017Z,15.30
2023-04-30T03:18:28.568Z,15.30
2023-04-30T03:20:57.049Z,15.40
2023-04-30T03:23:29.269Z,15.30
2023-04-30T03:25:57.834Z,15.30
2023-04-30T03:28:26.216Z,15.30
2023-04-30T03:30:55.819Z,15.20
2023-04-30T03:33:24.928Z,15.30
2023-04-30T03:35:54.113Z,15.20
2023-04-30T03:38:22.455Z,15.30
2023-04-30T03:40:52.151Z,15.30
2023-04-30T03:43:20.857Z,15.40
2023-04-30T03:45:49.580Z,15.30
2023-04-30T03:48:18.663Z,15.40
2023-04-30T03:50:47.663Z,15.30
2023-04-30T03:53:16.045Z,15.30
2023-04-30T03:55:44.906Z,15.20
2023-04-30T03:58:14.975Z,15.20
2023-04-30T04:00:43.412Z,15.20
2023-04-30T04:03:12.550Z,15.10
2023-04-30T04:05:42.795Z,15.10
2023-04-30T04:08:12.228Z,15.00
2023-04-30T04:10:41.056Z,15.00
2023-04-30T04:13:11.581Z,14.90
2023-04-30T04:15:41.919Z,14.70
2023-04-30T04:18:10.786Z,14.60
2023-04-30T04:20:40.520Z,14.50
2023-04-30T04:23:09.008Z,14.40
2023-04-30T04:25:37.386Z,14.40
2023-04-30T04:28:07.060Z,14.30
2023-04-30T04:30:36.686Z,14.40
2023-04-30T04:33:08.641Z,14.30
2023-04-30T04:35:37.253Z,14.00
2023-04-30T04:38:06.201Z,13.90
2023-04-30T04:40:35.689Z,13.80
2023-04-30T04:43:04.302Z,13.60
2023-04-30T04:45:33.765Z,13.40
2023-04-30T04:48:02.505Z,13.30
2023-04-30T04:50:32.779Z,13.40
2023-04-30T04:53:01.152Z,13.60
2023-04-30T04:55:29.449Z,13.50
2023-04-30T04:57:57.854Z,13.60
2023-04-30T05:00:26.338Z,13.50
2023-04-30T05:02:55.116Z,13.50
2023-04-30T05:05:23.996Z,13.60
2023-04-30T05:07:55.048Z,13.80
2023-04-30T05:10:23.459Z,13.90
2023-04-30T05:12:51.828Z,13.80
2023-04-30T05:15:20.941Z,13.60
2023-04-30T05:17:49.984Z,13.60
2023-04-30T05:20:18.716Z,13.40
2023-04-30T05:22:47.416Z,13.30
2023-04-30T05:25:17.371Z,13.30
2023-04-30T05:27:45.922Z,13.40
2023-04-30T05:30:15.729Z,13.50
2023-04-30T05:32:44.296Z,13.60
2023-04-30T05:35:13.073Z,13.50
2023-04-30T05:37:41.861Z,13.60
2023-04-30T05:40:11.268Z,13.50
2023-04-30T05:42:41.231Z,13.60
2023-04-30T05:45:10.705Z,13.50
2023-04-30T05:47:40.018Z,13.40
2023-04-30T05:50:11.331Z,13.40
2023-04-30T05:52:40.178Z,13.50
2023-04-30T05:55:09.849Z,13.50
2023-04-30T05:57:38.492Z,13.60
2023-04-30T06:00:10.406Z,13.60
2023-04-30T06:02:41.587Z,13.30
2023-04-30T06:05:10.781Z,13.30
2023-04-30T06:07:39.309Z,13.40
2023-04-30T06:10:09.507Z,13.60
2023-04-30T06:12:38.333Z,13.60
2023-04-30T06:15:09.982Z,13.50
2023-04-30T06:17:39.960Z,13.40
2023-04-30T06:20:09.711Z,13.50
2023-04-30T06:22:41.201Z,13.40
2023-04-30T06:25:10.562Z,13.50
2023-04-30T06:27:39.127Z,13.40
2023-04-30T06:30:10.970Z,13.40
2023-04-30T06:32:39.567Z,13.30
2023-04-30T06:35:08.477Z,13.40
2023-04-30T06:37:38.037Z,13.50
2023-04-30T06:40:08.840Z,13.60
2023-04-30T06:42:37.245Z,13.70
2023-04-30T06:45:07.074Z,14.00
2023-04-30T06:47:38.394Z,14.00
2023-04-30T06:50:07.651Z,14.00
2023-04-30T06:52:37.005Z,14.10
2023-04-30T06:55:06.179Z,14.00
2023-04-30T06:57:34.724Z,14.20
2023-04-30T07:00:06.564Z,14.50
2023-04-30T07:02:36.744Z,14.80
2023-04-30T07:05:05.485Z,14.80
2023-04-30T07:07:33.887Z,14.90
2023-04-30T07:10:02.238Z,15.10
2023-04-30T07:12:31.407Z,15.10
2023-04-30T07:14:59.809Z,15.20
2023-04-30T07:17:29.405Z,15.40
2023-04-30T07:20:02.143Z,15.40
2023-04-30T07:22:30.696Z,15.60
2023-04-30T07:24:59.346Z,15.70
2023-04-30T07:27:28.299Z,15.90
2023-04-30T07:29:57.492Z,15.90
2023-04-30T07:32:27.211Z,16.10
2023-04-30T07:34:56.083Z,16.40
2023-04-30T07:37:26.755Z,16.60
2023-04-30T07:39:55.602Z,16.80
2023-04-30T07:42:24.350Z,16.40
2023-04-30T07:44:53.003Z,16.30
2023-04-30T07:47:21.793Z,16.30
2023-04-30T07:49:50.737Z,16.30
2023-04-30T07:52:19.623Z,16.50
2023-04-30T07:54:50.033Z,16.60
2023-04-30T07:57:18.747Z,16.80
2023-04-30T07:59:51.302Z,16.60
2023-04-30T08:02:20.970Z,16.30
2023-04-30T08:04:49.820Z,16.30
2023-04-30T08:07:18.926Z,16.60
2023-04-30T08:09:47.487Z,16.80
2023-04-30T08:12:18.675Z,17.20
2023-04-30T08:14:47.293Z,17.20
2023-04-30T08:17:16.446Z,17.40
2023-04-30T08:19:46.371Z,17.50
2023-04-30T08:22:15.510Z,17.60
2023-04-30T08:24:44.416Z,17.60
2023-04-30T08:27:13.222Z,17.70
2023-04-30T08:29:43.511Z,17.70
2023-04-30T08:32:12.559Z,17.70
2023-04-30T08:34:41.888Z,17.90
2023-04-30T08:37:11.017Z,18.10
2023-04-30T08:39:40.495Z,18.30
2023-04-30T08:42:11.134Z,18.30
2023-04-30T08:44:44.004Z,18.50
2023-04-30T08:47:15.092Z,18.60
2023-04-30T08:49:44.982Z,18.30
2023-04-30T08:52:13.914Z,18.00
2023-04-30T08:54:45.903Z,17.80
2023-04-30T08:57:15.283Z,17.80
2023-04-30T08:59:47.532Z,17.90
2023-04-30T09:02:19.523Z,17.70
2023-04-30T09:04:49.854Z,17.70
2023-04-30T09:07:20.060Z,17.80
2023-04-30T09:09:49.275Z,17.90
2023-04-30T09:12:19.936Z,18.10
2023-04-30T09:15:03.879Z,17.90
2023-04-30T09:17:35.277Z,18.10
2023-04-30T09:20:17.238Z,18.50
2023-04-30T09:22:46.079Z,18.50
2023-04-30T09:25:14.841Z,18.60
2023-04-30T09:27:46.198Z,18.50
2023-04-30T09:30:33.043Z,18.30
2023-04-30T09:33:04.496Z,18.30
2023-04-30T09:35:34.681Z,18.20
2023-04-30T09:38:04.519Z,18.30
2023-04-30T09:40:41.832Z,18.10
2023-04-30T09:43:11.113Z,18.00
2023-04-30T09:45:45.320Z,18.00
2023-04-30T09:48:19.317Z,18.20
2023-04-30T09:50:48.639Z,18.10
2023-04-30T09:53:19.555Z,18.30
2023-04-30T09:56:01.877Z,18.10
2023-04-30T09:58:41.081Z,17.90
2023-04-30T10:01:11.409Z,17.80
2023-04-30T10:03:44.130Z,17.90
2023-04-30T10:06:16.083Z,17.80
2023-04-30T10:08:48.036Z,17.60
2023-04-30T10:11:22.288Z,17.60
2023-04-30T10:13:56.022Z,17.70
2023-04-30T10:16:43.245Z,17.70
2023-04-30T10:19:20.273Z,17.70
2023-04-30T10:21:49.599Z,17.50
2023-04-30T10:24:21.046Z,17.60
2023-04-30T10:26:51.137Z,17.50
2023-04-30T10:29:20.036Z,17.50
2023-04-30T10:31:52.870Z,17.60
2023-04-30T10:34:39.885Z,17.70
2023-04-30T10:37:14.499Z,17.70
2023-04-30T10:39:44.070Z,17.80
2023-04-30T10:42:13.592Z,17.80
2023-04-30T10:44:42.904Z,17.70
2023-04-30T10:47:11.455Z,17.80
2023-04-30T10:49:44.330Z,17.90
2023-04-30T10:52:13.316Z,17.90
2023-04-30T10:54:50.505Z,17.80
2023-04-30T10:57:20.205Z,17.90
2023-04-30T10:59:55.666Z,18.10
2023-04-30T11:02:24.912Z,18.10
2023-04-30T11:05:15.342Z,18.20
2023-04-30T11:07:52.796Z,18.20
2023-04-30T11:10:24.092Z,18.20
2023-04-30T11:12:54.386Z,18.20
2023-04-30T11:15:26.553Z,18.20
2023-04-30T11:17:59.793Z,18.10
2023-04-30T11:20:29.995Z,18.10
2023-04-30T11:23:14.201Z,18.20
2023-04-30T11:25:47.454Z,18.20
2023-04-30T11:28:18.346Z,18.30
2023-04-30T11:30:55.221Z,18.40
2023-04-30T11:33:27.040Z,18.40
2023-04-30T11:35:58.164Z,18.60
2023-04-30T11:38:28.976Z,18.60
2023-04-30T11:40:59.213Z,18.60
2023-04-30T11:43:29.587Z,18.60
2023-04-30T11:46:08.156Z,18.60
2023-04-30T11:48:38.140Z,18.60
2023-04-30T11:51:18.773Z,18.70
2023-04-30T11:53:48.867Z,18.80
2023-04-30T11:56:20.708Z,18.80
2023-04-30T11:58:51.013Z,18.90
2023-04-30T12:01:24.805Z,19.10
2023-04-30T12:03:54.319Z,19.00
2023-04-30T12:06:25.857Z,19.00
2023-04-30T12:08:55.639Z,19.00
2023-04-30T12:11:26.308Z,18.70
2023-04-30T12:13:56.375Z,18.70
2023-04-30T12:16:25.902Z,18.80
2023-04-30T12:18:54.318Z,18.60
2023-04-30T12:21:24.574Z,18.50
2023-04-30T12:23:54.484Z,18.60
2023-04-30T12:26:23.398Z,18.50
2023-04-30T12:28:52.721Z,18.40
2023-04-30T12:31:21.281Z,18.50
2023-04-30T12:33:57.080Z,18.60
2023-04-30T12:36:33.457Z,18.80
2023-04-30T12:39:08.851Z,18.90
2023-04-30T12:41:43.010Z,19.10
2023-04-30T12:44:22.184Z,19.10
2023-04-30T12:46:53.521Z,19.00
2023-04-30T12:49:26.653Z,19.00
2023-04-30T12:52:01.754Z,19.00
2023-04-30T12:54:32.868Z,19.20
2023-04-30T12:57:03.677Z,19.30
2023-04-30T12:59:33.612Z,19.10
2023-04-30T13:02:10.614Z,19.10
2023-04-30T13:04:40.197Z,19.10
2023-04-30T13:07:10.800Z,19.20
2023-04-30T13:09:39.630Z,19.00
2023-04-30T13:12:08.608Z,18.90
2023-04-30T13:14:37.434Z,18.80
2023-04-30T13:17:07.497Z,19.00
2023-04-30T13:19:36.951Z,19.20
2023-04-30T13:22:05.561Z,19.40
2023-04-30T13:24:35.916Z,19.60
2023-04-30T13:27:05.274Z,19.70
2023-04-30T13:29:34.584Z,19.50
2023-04-30T13:32:04.607Z,19.30
2023-04-30T13:34:33.252Z,19.30
2023-04-30T13:37:01.956Z,19.30
2023-04-30T13:39:30.891Z,19.30
2023-04-30T13:42:03.033Z,19.40
2023-04-30T13:44:33.006Z,19.40
2023-04-30T13:47:02.012Z,19.10
2023-04-30T13:49:30.821Z,19.10
2023-04-30T13:51:59.574Z,19.30
2023-04-30T13:54:27.961Z,19.30
2023-04-30T13:56:56.634Z,19.40
2023-04-30T13:59:29.589Z,19.40
2023-04-30T14:01:58.864Z,19.10
2023-04-30T14:04:27.629Z,19.20
2023-04-30T14:06:57.613Z,19.40
2023-04-30T14:09:27.022Z,19.70
2023-04-30T14:11:56.218Z,19.80
2023-04-30T14:14:27.093Z,19.90
2023-04-30T14:16:55.779Z,19.90
2023-04-30T14:19:24.667Z,19.80
2023-04-30T14:21:53.194Z,19.80
2023-04-30T14:24:21.829Z,19.70
2023-04-30T14:26:50.617Z,19.40
2023-04-30T14:29:21.565Z,19.30
2023-04-30T14:31:51.822Z,19.20
2023-04-30T14:34:20.379Z,19.20
2023-04-30T14:36:49.049Z,19.20
2023-04-30T14:39:17.724Z,19.30
2023-04-30T14:41:46.564Z,19.30
2023-04-30T14:44:16.882Z,19.40
2023-04-30T14:46:46.034Z,19.50
2023-04-30T14:49:16.196Z,19.40
2023-04-30T14:51:45.105Z,19.40
2023-04-30T14:54:14.048Z,19.40
2023-04-30T14:56:44.617Z,19.20
2023-04-30T14:59:13.900Z,19.40
2023-04-30T15:01:42.873Z,19.40
2023-04-30T15:04:12.046Z,19.50
2023-04-30T15:06:42.371Z,19.20
2023-04-30T15:09:12.464Z,19.20
2023-04-30T15:11:41.302Z,19.20
2023-04-30T15:14:09.984Z,19.20
2023-04-30T15:16:39.482Z,19.50
2023-04-30T15:19:08.089Z,19.60
2023-04-30T15:21:37.879Z,19.50
2023-04-30T15:24:09.345Z,19.30
2023-04-30T15:26:38.187Z,19.30
2023-04-30T15:29:06.729Z,19.40
2023-04-30T15:31:35.714Z,19.50
2023-04-30T15:34:04.643Z,19.40
2023-04-30T15:36:34.184Z,19.30
2023-04-30T15:39:05.033Z,19.40
2023-04-30T15:41:35.631Z,19.20
2023-04-30T15:44:04.170Z,19.20
2023-04-30T15:46:34.928Z,19.20
2023-04-30T15:49:03.554Z,19.30
2023-04-30T15:51:31.943Z,19.30
2023-04-30T15:54:00.383Z,19.30
2023-04-30T15:56:29.409Z,19.20
2023-04-30T15:58:59.232Z,19.30
2023-04-30T16:01:27.736Z,19.30
2023-04-30T16:03:56.606Z,19.30
2023-04-30T16:06:25.532Z,19.40
2023-04-30T16:08:54.289Z,19.40
2023-04-30T16:11:25.647Z,19.00
2023-04-30T16:13:54.502Z,18.80
2023-04-30T16:16:25.550Z,18.90
2023-04-30T16:18:55.651Z,18.80
2023-04-30T16:21:24.900Z,19.00
2023-04-30T16:23:53.325Z,19.00
2023-04-30T16:26:22.095Z,19.20
2023-04-30T16:28:50.681Z,19.30
2023-04-30T16:31:22.809Z,19.30
2023-04-30T16:33:53.021Z,19.40
2023-04-30T16:36:21.604Z,19.40
2023-04-30T16:38:50.110Z,19.50
2023-04-30T16:41:19.081Z,19.40
2023-04-30T16:43:47.770Z,19.30
2023-04-30T16:46:16.303Z,19.20
2023-04-30T16:48:44.809Z,19.00
2023-04-30T16:51:14.717Z,19.10
2023-04-30T16:53:43.057Z,19.20
2023-04-30T16:56:11.422Z,19.20
2023-04-30T16:58:39.976Z,19.20
2023-04-30T17:01:08.303Z,19.10
2023-04-30T17:03:37.045Z,19.10
2023-04-30T17:06:06.859Z,19.20
2023-04-30T17:08:37.421Z,19.30
2023-04-30T17:11:06.426Z,19.30
2023-04-30T17:13:34.874Z,19.20
2023-04-30T17:16:03.393Z,19.30
2023-04-30T17:18:31.842Z,19.40
2023-04-30T17:21:00.282Z,19.40
2023-04-30T17:23:28.700Z,19.40
2023-04-30T17:25:58.518Z,19.40
2023-04-30T17:28:26.920Z,19.20
2023-04-30T17:30:56.509Z,19.30
2023-04-30T17:33:26.529Z,19.40
2023-04-30T17:35:55.082Z,19.40
2023-04-30T17:38:23.461Z,19.40
2023-04-30T17:40:53.234Z,19.50
2023-04-30T17:43:22.983Z,19.60
2023-04-30T17:45:53.333Z,19.60
2023-04-30T17:48:22.340Z,19.80
2023-04-30T17:50:51.801Z,19.80
2023-04-30T17:53:20.505Z,19.70
2023-04-30T17:55:49.601Z,19.80
2023-04-30T17:58:20.172Z,19.80
2023-04-30T18:00:50.180Z,19.80
2023-04-30T18:03:19.098Z,19.80
2023-04-30T18:05:47.614Z,19.70
2023-04-30T18:08:15.973Z,19.60
2023-04-30T18:10:44.402Z,19.30
2023-04-30T18:13:12.710Z,19.20
2023-04-30T18:15:41.039Z,19.10
2023-04-30T18:18:11.014Z,19.10
2023-04-30T18:20:39.867Z,19.30
2023-04-30T18:23:10.011Z,19.00
2023-04-30T18:25:38.702Z,18.90
2023-04-30T18:28:07.725Z,18.70
2023-04-30T18:30:36.902Z,18.40
2023-04-30T18:33:05.414Z,18.20
2023-04-30T18:35:36.030Z,18.00
2023-04-30T18:38:04.428Z,18.20
2023-04-30T18:40:32.722Z,18.60
2023-04-30T18:43:02.055Z,18.80
2023-04-30T18:45:30.513Z,18.70
2023-04-30T18:47:59.033Z,18.30
2023-04-30T18:50:27.642Z,18.20
2023-04-30T18:52:57.444Z,18.20
2023-04-30T18:55:25.816Z,18.10
2023-04-30T18:57:56.296Z,17.60
2023-04-30T19:00:24.842Z,17.00
2023-04-30T19:02:53.411Z,16.50
2023-04-30T19:05:21.943Z,16.00
2023-04-30T19:07:50.574Z,16.00
2023-04-30T19:10:20.534Z,16.30
2023-04-30T19:12:49.508Z,16.90
2023-04-30T19:15:18.109Z,17.10
2023-04-30T19:17:46.487Z,17.30
2023-04-30T19:20:15.194Z,17.40
2023-04-30T19:22:43.664Z,17.60
2023-04-30T19:25:12.415Z,17.70
2023-04-30T19:27:43.982Z,17.60
2023-04-30T19:30:14.312Z,16.70
2023-04-30T19:32:42.758Z,16.10
2023-04-30T19:35:12.315Z,16.10
2023-04-30T19:37:40.847Z,16.00
2023-04-30T19:40:11.941Z,15.80
2023-04-30T19:42:41.996Z,15.90
2023-04-30T19:45:11.802Z,16.20
2023-04-30T19:47:40.331Z,16.50
2023-04-30T19:50:10.370Z,16.50
2023-04-30T19:52:38.777Z,16.00
2023-04-30T19:55:07.586Z,15.70
2023-04-30T19:57:36.833Z,15.70
2023-04-30T20:00:09.834Z,15.50
2023-04-30T20:02:42.124Z,15.30
2023-04-30T20:05:11.866Z,15.40
2023-04-30T20:07:40.658Z,15.40
2023-04-30T20:10:10.715Z,15.40
2023-04-30T20:12:39.521Z,15.20
2023-04-30T20:15:10.760Z,15.10
2023-04-30T20:17:39.314Z,15.00
2023-04-30T20:20:08.963Z,15.10
2023-04-30T20:22:37.356Z,15.10
2023-04-30T20:25:06.574Z,14.70
2023-04-30T20:27:35.874Z,14.70
2023-04-30T20:30:04.965Z,14.70
2023-04-30T20:32:35.705Z,15.00
2023-04-30T20:35:04.789Z,14.80
2023-04-30T20:37:33.427Z,14.90
2023-04-30T20:40:02.307Z,15.30
2023-04-30T20:42:31.038Z,15.10
2023-04-30T20:44:59.471Z,14.70
2023-04-30T20:47:27.901Z,14.40
2023-04-30T20:49:59.007Z,14.10
2023-04-30T20:52:27.376Z,14.20
2023-04-30T20:54:56.378Z,14.20
2023-04-30T20:57:24.750Z,14.30
2023-04-30T20:59:53.064Z,14.10
2023-04-30T21:02:21.592Z,13.90
2023-04-30T21:04:50.623Z,13.80
2023-04-30T21:07:20.417Z,13.70
2023-04-30T21:09:48.936Z,13.70
2023-04-30T21:12:17.784Z,13.80
2023-04-30T21:14:46.160Z,14.00
2023-04-30T21:17:15.294Z,13.90
2023-04-30T21:19:43.934Z,13.80
2023-04-30T21:22:14.530Z,13.70
2023-04-30T21:24:44.306Z,13.60
2023-04-30T21:27:12.681Z,13.60
2023-04-30T21:29:44.569Z,14.00
2023-04-30T21:32:13.509Z,14.30
2023-04-30T21:34:41.868Z,14.40
2023-04-30T21:37:10.261Z,14.10
2023-04-30T21:39:38.768Z,13.80
2023-04-30T21:42:08.886Z,13.70
2023-04-30T21:44:37.181Z,13.90
2023-04-30T21:47:08.325Z,13.80
2023-04-30T21:49:37.031Z,14.00
2023-04-30T21:52:08.213Z,13.90
2023-04-30T21:54:38.780Z,13.80
2023-04-30T21:57:08.472Z,13.60
2023-04-30T21:59:36.801Z,13.60
2023-04-30T22:02:20.003Z,13.40
2023-04-30T22:04:51.250Z,13.40
2023-04-30T22:07:19.617Z,13.10
2023-04-30T22:09:48.087Z,13.00
2023-04-30T22:12:19.261Z,13.00
2023-04-30T22:14:49.901Z,13.10
2023-04-30T22:17:18.368Z,12.90
2023-04-30T22:19:46.869Z,13.20
2023-04-30T22:22:15.598Z,13.80
2023-04-30T22:24:44.134Z,13.30
2023-04-30T22:27:12.504Z,13.00
2023-04-30T22:29:43.511Z,12.80
2023-04-30T22:32:13.148Z,13.30
2023-04-30T22:34:42.730Z,13.00
2023-04-30T22:37:11.769Z,12.60
2023-04-30T22:39:42.200Z,12.70
2023-04-30T22:42:11.923Z,12.80
2023-04-30T22:44:41.875Z,13.20
2023-04-30T22:47:11.153Z,13.60
2023-04-30T22:49:39.804Z,13.70
2023-04-30T22:52:08.227Z,13.70
2023-04-30T22:54:38.686Z,13.30
2023-04-30T22:57:07.173Z,13.10
2023-04-30T22:59:35.549Z,13.10
2023-04-30T23:02:05.262Z,13.10
2023-04-30T23:04:36.302Z,12.90
2023-04-30T23:07:05.099Z,12.30
2023-04-30T23:09:33.956Z,12.70
2023-04-30T23:12:04.483Z,12.70
2023-04-30T23:14:33.048Z,12.50
2023-04-30T23:17:04.210Z,12.10
2023-04-30T23:19:33.158Z,12.30
2023-04-30T23:22:05.202Z,11.80
2023-04-30T23:24:35.910Z,11.50
2023-04-30T23:27:04.628Z,11.50
2023-04-30T23:29:34.886Z,11.50
2023-04-30T23:32:06.028Z,11.90
2023-04-30T23:34:34.803Z,12.40
2023-04-30T23:37:03.576Z,12.50
2023-04-30T23:39:31.940Z,12.60
2023-04-30T23:42:00.342Z,12.50
2023-04-30T23:44:32.208Z,12.30
2023-04-30T23:47:01.883Z,12.70
2023-04-30T23:49:31.504Z,13.00
2023-04-30T23:51:59.868Z,13.30
2023-04-30T23:54:28.838Z,13.50
2023-04-30T23:56:57.249Z,13.50
2023-04-30T23:59:25.849Z,13.50
